Time;durP1;ratioP1;P1;durP2;ratioP2;P2;SDS_P1;SDS_P2;PMS_P1;PMS_P2;Temp;Humidity;BMP_temperature;BMP_pressure;BME280_temperature;BME280_humidity;BME280_pressure;Samples;Min_cycle;Max_cycle;Signal;HPM_P1;HPM_P2
2023/10/04 00:01:14;;;;;;;10.25;3.75;;;27.10;51.10;;;;;;4934563;29;20496;-74
2023/10/04 00:03:40;;;;;;;7.97;3.83;;;27.10;51.20;;;;;;4934411;29;20040;-73
2023/10/04 00:06:08;;;;;;;7.25;3.60;;;27.20;51.20;;;;;;4934931;29;20080;-74
2023/10/04 00:08:33;;;;;;;7.50;3.20;;;27.10;51.20;;;;;;4934979;29;20500;-73
2023/10/04 00:11:01;;;;;;;8.90;3.75;;;27.00;51.20;;;;;;4934372;29;20035;-74
2023/10/04 00:13:28;;;;;;;6.10;3.00;;;27.10;51.20;;;;;;4931673;29;20043;-74
2023/10/04 00:15:54;;;;;;;7.60;3.22;;;27.00;51.20;;;;;;4932340;29;20039;-74
2023/10/04 00:18:20;;;;;;;9.50;3.78;;;27.00;51.20;;;;;;4932013;29;20083;-74
2023/10/04 00:20:46;;;;;;;7.35;3.10;;;27.10;51.20;;;;;;4931966;29;20095;-74
2023/10/04 00:23:13;;;;;;;7.47;3.45;;;27.00;51.20;;;;;;4931369;29;20071;-73
2023/10/04 00:25:39;;;;;;;6.30;3.17;;;26.90;50.70;;;;;;4932296;29;20539;-74
2023/10/04 00:28:05;;;;;;;9.63;3.63;;;27.00;51.20;;;;;;4932142;29;20107;-74
2023/10/04 00:30:32;;;;;;;8.80;4.00;;;26.90;50.70;;;;;;4932357;29;20091;-74
2023/10/04 00:33:04;;;;;;;6.15;3.25;;;26.90;50.70;;;;;;4931243;29;20083;-74
2023/10/04 00:35:30;;;;;;;11.65;4.03;;;26.90;50.80;;;;;;4932228;29;20044;-73
2023/10/04 00:37:57;;;;;;;6.45;4.05;;;27.10;51.50;;;;;;4931849;29;20039;-74
2023/10/04 00:40:27;;;;;;;7.97;3.67;;;26.90;51.00;;;;;;4931530;29;20545;-74
2023/10/04 00:43:05;;;;;;;9.73;3.58;;;26.90;51.00;;;;;;4916170;29;20524;-74
2023/10/04 00:45:34;;;;;;;8.15;3.90;;;27.00;51.60;;;;;;4932076;29;20044;-73
2023/10/04 00:48:10;;;;;;;6.80;3.90;;;27.00;51.60;;;;;;4934350;29;20036;-74
2023/10/04 00:50:36;;;;;;;11.57;4.28;;;27.00;51.70;;;;;;4932837;29;20520;-74
2023/10/04 00:53:26;;;;;;;11.63;4.10;;;27.00;51.80;;;;;;4934209;29;20087;-73
2023/10/04 00:55:57;;;;;;;13.15;3.90;;;27.10;51.70;;;;;;4932375;29;20043;-74
2023/10/04 00:58:24;;;;;;;6.43;3.72;;;27.10;51.80;;;;;;4933385;29;20119;-73
2023/10/04 01:00:50;;;;;;;10.50;3.92;;;27.00;51.80;;;;;;4932965;29;20043;-74
2023/10/04 01:03:25;;;;;;;9.10;3.67;;;27.00;51.80;;;;;;4932486;29;20043;-73
2023/10/04 01:05:52;;;;;;;9.63;3.50;;;27.00;51.70;;;;;;4932955;29;20047;-74
2023/10/04 01:08:22;;;;;;;9.48;4.22;;;27.00;51.70;;;;;;4933901;29;20032;-73
2023/10/04 01:10:50;;;;;;;7.68;4.28;;;26.90;51.10;;;;;;4933634;29;20465;-74
2023/10/04 01:13:22;;;;;;;9.48;4.13;;;27.00;51.70;;;;;;4932560;29;20046;-73
2023/10/04 01:15:55;;;;;;;10.68;3.80;;;26.90;51.10;;;;;;4933622;29;20064;-74
2023/10/04 01:18:22;;;;;;;8.70;3.83;;;27.10;51.70;;;;;;4930795;29;20047;-73
2023/10/04 01:20:50;;;;;;;11.38;4.50;;;26.90;51.20;;;;;;4931784;29;20080;-74
2023/10/04 01:23:16;;;;;;;9.75;3.30;;;26.90;51.20;;;;;;4915286;29;20047;-74
2023/10/04 01:25:44;;;;;;;10.75;4.00;;;26.90;51.20;;;;;;4930876;29;20039;-73
2023/10/04 01:28:13;;;;;;;7.93;3.10;;;26.90;51.20;;;;;;4931500;29;20044;-73
2023/10/04 01:30:43;;;;;;;9.45;4.20;;;27.00;51.80;;;;;;4930871;29;20035;-73
2023/10/04 01:33:15;;;;;;;8.75;3.25;;;26.80;51.30;;;;;;4932423;29;20111;-73
2023/10/04 01:35:42;;;;;;;10.77;3.80;;;26.80;51.40;;;;;;4919061;29;20058;-73
2023/10/04 01:38:08;;;;;;;9.80;3.80;;;26.80;51.50;;;;;;4919531;29;20060;-74
2023/10/04 01:40:39;;;;;;;10.02;3.95;;;26.90;51.50;;;;;;4934954;29;20054;-74
2023/10/04 01:43:17;;;;;;;8.52;4.38;;;26.80;51.60;;;;;;4919045;29;20123;-73
2023/10/04 01:45:48;;;;;;;11.35;4.57;;;26.90;51.60;;;;;;4934821;29;20040;-73
2023/10/04 01:48:15;;;;;;;10.45;4.07;;;26.80;51.60;;;;;;4935339;29;20047;-73
2023/10/04 01:50:46;;;;;;;12.95;4.30;;;26.90;51.60;;;;;;4936067;29;20040;-73
2023/10/04 01:53:13;;;;;;;8.38;4.28;;;26.80;51.60;;;;;;4936047;29;20126;-74
2023/10/04 01:55:40;;;;;;;9.93;4.35;;;26.80;51.70;;;;;;4936707;29;20092;-74
2023/10/04 01:58:07;;;;;;;9.27;3.17;;;26.90;51.70;;;;;;4937348;29;20032;-74
2023/10/04 02:00:34;;;;;;;7.13;3.72;;;27.00;52.30;;;;;;4935417;29;20050;-73
2023/10/04 02:03:01;;;;;;;8.95;4.18;;;26.80;51.70;;;;;;4937495;29;20040;-74
2023/10/04 02:05:31;;;;;;;9.52;4.32;;;26.90;51.70;;;;;;4935917;29;20042;-73
2023/10/04 02:08:01;;;;;;;13.45;3.63;;;26.90;51.60;;;;;;4936275;29;20038;-74
2023/10/04 02:10:28;;;;;;;6.13;3.78;;;26.80;51.60;;;;;;4935591;29;20039;-73
2023/10/04 02:12:55;;;;;;;8.50;4.20;;;26.90;51.60;;;;;;4935606;29;20036;-74
2023/10/04 02:15:21;;;;;;;10.43;4.13;;;26.80;51.60;;;;;;4935690;29;20119;-74
2023/10/04 02:17:49;;;;;;;8.60;3.90;;;26.80;51.60;;;;;;4936948;29;20119;-73
2023/10/04 02:20:28;;;;;;;13.80;4.80;;;26.90;51.60;;;;;;4935900;29;20024;-73
2023/10/04 02:22:55;;;;;;;9.98;3.58;;;26.70;51.60;;;;;;4933698;29;20084;-74
2023/10/04 02:25:22;;;;;;;9.40;3.58;;;26.80;51.60;;;;;;4934072;29;20069;-73
2023/10/04 02:27:49;;;;;;;9.02;4.30;;;26.70;51.60;;;;;;4934211;29;20479;-74
2023/10/04 02:30:18;;;;;;;10.18;4.97;;;26.70;51.60;;;;;;4934179;29;20039;-74
2023/10/04 02:32:45;;;;;;;10.05;4.18;;;26.80;51.70;;;;;;4933826;29;20062;-74
2023/10/04 02:35:22;;;;;;;7.70;4.05;;;26.80;51.80;;;;;;4934411;29;20047;-73
2023/10/04 02:37:54;;;;;;;7.97;4.28;;;26.60;51.80;;;;;;4933760;29;20044;-74
2023/10/04 02:40:27;;;;;;;10.80;4.20;;;26.80;51.90;;;;;;4915124;29;20040;-74
2023/10/04 02:42:55;;;;;;;7.88;3.97;;;26.80;51.90;;;;;;4914873;29;20429;-73
2023/10/04 02:45:24;;;;;;;10.38;4.60;;;26.80;51.90;;;;;;4927105;29;20555;-73
2023/10/04 02:47:52;;;;;;;11.85;4.03;;;26.70;51.90;;;;;;4895083;29;20154;-73
2023/10/04 02:50:20;;;;;;;10.43;4.00;;;26.80;51.90;;;;;;4896296;29;20096;-73
2023/10/04 02:52:46;;;;;;;13.90;4.80;;;26.80;51.90;;;;;;4895627;29;20053;-73
2023/10/04 02:55:17;;;;;;;8.07;4.25;;;26.90;51.90;;;;;;4878536;29;20041;-73
2023/10/04 02:57:52;;;;;;;10.27;4.80;;;26.80;51.90;;;;;;4880556;29;20048;-74
2023/10/04 03:00:20;;;;;;;12.70;4.07;;;26.70;51.90;;;;;;4880037;29;20070;-74
2023/10/04 03:02:53;;;;;;;7.00;4.03;;;26.90;51.90;;;;;;4880660;29;20445;-73
2023/10/04 03:05:23;;;;;;;10.73;4.28;;;26.70;51.90;;;;;;4880586;29;20115;-73
2023/10/04 03:07:52;;;;;;;7.55;4.18;;;26.70;51.80;;;;;;4880094;29;20080;-74
2023/10/04 03:10:23;;;;;;;11.02;4.28;;;26.70;51.80;;;;;;4880137;29;20111;-73
2023/10/04 03:13:00;;;;;;;8.57;3.47;;;26.70;51.80;;;;;;4880317;29;20095;-74
2023/10/04 03:15:28;;;;;;;10.82;4.85;;;26.80;51.80;;;;;;4879833;29;20041;-73
2023/10/04 03:17:57;;;;;;;11.57;4.65;;;26.80;51.80;;;;;;4884720;29;20077;-73
2023/10/04 03:20:24;;;;;;;12.55;4.25;;;26.70;51.80;;;;;;4934802;29;20042;-73
2023/10/04 03:22:55;;;;;;;7.82;4.10;;;26.80;51.80;;;;;;4934382;29;20057;-74
2023/10/04 03:25:28;;;;;;;10.47;4.17;;;26.60;51.80;;;;;;4934114;29;20035;-73
2023/10/04 03:27:57;;;;;;;7.05;3.65;;;26.60;51.90;;;;;;4918476;29;20047;-73
2023/10/04 03:30:23;;;;;;;10.50;3.65;;;26.60;52.00;;;;;;4933716;29;20400;-73
2023/10/04 03:32:53;;;;;;;9.50;4.20;;;26.70;52.10;;;;;;4933982;29;20099;-74
2023/10/04 03:35:26;;;;;;;10.30;4.30;;;26.70;52.10;;;;;;4934117;29;20391;-74
2023/10/04 03:38:04;;;;;;;13.00;4.15;;;26.60;52.20;;;;;;4918270;29;20282;-73
2023/10/04 03:40:35;;;;;;;8.07;4.30;;;26.70;52.20;;;;;;4915423;29;20036;-73
2023/10/04 03:43:06;;;;;;;13.00;4.47;;;26.60;52.20;;;;;;4913998;29;20475;-74
2023/10/04 03:45:39;;;;;;;12.00;4.28;;;26.60;52.20;;;;;;4932483;29;20043;-74
2023/10/04 03:48:15;;;;;;;8.63;4.40;;;26.70;52.20;;;;;;4916999;29;20047;-74
2023/10/04 03:50:46;;;;;;;7.97;3.75;;;26.70;52.30;;;;;;4900954;29;20047;-73
2023/10/04 03:53:13;;;;;;;10.38;4.30;;;26.70;52.30;;;;;;4916558;29;20582;-73
2023/10/04 03:55:41;;;;;;;11.05;4.38;;;26.70;52.40;;;;;;4932056;29;20050;-74
2023/10/04 03:58:07;;;;;;;9.82;3.65;;;26.70;52.30;;;;;;4916239;29;20100;-73
2023/10/04 04:00:36;;;;;;;11.57;4.43;;;26.70;52.30;;;;;;4916580;29;20325;-73
2023/10/04 04:03:03;;;;;;;16.80;4.90;;;26.70;52.20;;;;;;4932522;29;20108;-73
2023/10/04 04:05:30;;;;;;;10.52;4.43;;;26.70;52.30;;;;;;4932214;29;20149;-73
2023/10/04 04:07:57;;;;;;;11.75;4.18;;;26.70;52.20;;;;;;4931962;29;20104;-73
2023/10/04 04:10:24;;;;;;;8.18;3.35;;;26.50;52.20;;;;;;4932404;29;20488;-73
2023/10/04 04:12:52;;;;;;;15.88;4.18;;;26.60;52.20;;;;;;4932049;29;20051;-73
2023/10/04 04:15:18;;;;;;;14.77;4.10;;;26.70;52.20;;;;;;4932949;29;20062;-73
2023/10/04 04:17:46;;;;;;;9.88;3.58;;;26.70;52.20;;;;;;4933374;29;20590;-73
2023/10/04 04:20:17;;;;;;;10.05;4.00;;;26.50;52.20;;;;;;4933433;29;20043;-73
2023/10/04 04:22:50;;;;;;;13.65;4.13;;;26.60;52.30;;;;;;4933028;29;20156;-73
2023/10/04 04:25:19;;;;;;;12.07;4.63;;;26.60;52.20;;;;;;4933069;29;20053;-73
2023/10/04 04:27:50;;;;;;;8.85;4.32;;;26.60;52.30;;;;;;4932783;29;20063;-73
2023/10/04 04:30:19;;;;;;;11.35;4.05;;;26.60;52.30;;;;;;4932638;29;20107;-73
2023/10/04 04:32:52;;;;;;;19.30;4.85;;;26.50;52.30;;;;;;4933317;29;20064;-73
2023/10/04 04:38:19;;;;;;;9.40;4.82;;;26.50;52.30;;;;;;4933254;29;20145;-73
2023/10/04 04:40:52;;;;;;;9.65;3.90;;;26.60;52.40;;;;;;4916960;29;20035;-73
2023/10/04 04:45:57;;;;;;;13.75;4.60;;;26.50;52.40;;;;;;4932415;29;20040;-73
2023/10/04 04:48:35;;;;;;;12.48;4.70;;;26.50;52.40;;;;;;4933401;29;20050;-72
2023/10/04 04:51:11;;;;;;;8.43;4.28;;;26.50;52.40;;;;;;4933099;29;20106;-73
2023/10/04 04:53:41;;;;;;;11.65;4.43;;;26.50;52.50;;;;;;4932289;29;20142;-73
2023/10/04 04:56:13;;;;;;;13.82;5.15;;;26.50;52.60;;;;;;4932433;29;20044;-73
2023/10/04 04:58:41;;;;;;;13.73;5.05;;;26.40;52.60;;;;;;4931625;29;20063;-72
2023/10/04 05:01:14;;;;;;;15.73;4.50;;;26.40;52.70;;;;;;4930947;29;20448;-73
2023/10/04 05:03:44;;;;;;;12.18;3.78;;;26.50;52.70;;;;;;4912600;29;20071;-73
2023/10/04 05:06:32;;;;;;;11.32;4.68;;;26.40;52.70;;;;;;4927057;29;20036;-74
2023/10/04 05:08:59;;;;;;;9.30;4.45;;;26.50;52.70;;;;;;4930653;29;20047;-73
2023/10/04 05:11:25;;;;;;;12.18;5.03;;;26.50;52.70;;;;;;4931480;29;20485;-73
2023/10/04 05:13:53;;;;;;;13.95;5.45;;;26.50;52.70;;;;;;4931279;29;20062;-73
2023/10/04 05:16:20;;;;;;;16.35;4.95;;;26.70;52.70;;;;;;4930157;29;20036;-73
2023/10/04 05:18:46;;;;;;;15.10;4.82;;;26.70;52.70;;;;;;4931582;29;20059;-73
2023/10/04 05:21:14;;;;;;;11.63;5.72;;;26.70;52.70;;;;;;4930943;29;20036;-73
2023/10/04 05:23:40;;;;;;;15.52;6.05;;;26.70;52.70;;;;;;4930682;29;20110;-73
2023/10/04 05:26:08;;;;;;;13.25;4.60;;;26.60;52.70;;;;;;4931293;29;20048;-73
2023/10/04 05:28:35;;;;;;;16.95;5.70;;;26.70;52.70;;;;;;4930467;29;20066;-73
2023/10/04 05:31:01;;;;;;;11.60;4.55;;;26.70;52.60;;;;;;4933605;29;20756;-73
2023/10/04 05:33:27;;;;;;;13.95;5.38;;;26.60;52.60;;;;;;4932311;29;20131;-74
2023/10/04 05:35:55;;;;;;;12.82;4.95;;;26.70;52.60;;;;;;4932966;29;20126;-74
2023/10/04 05:38:23;;;;;;;11.63;5.10;;;26.80;52.60;;;;;;4898805;29;20131;-74
2023/10/04 05:40:49;;;;;;;10.85;4.07;;;26.80;52.60;;;;;;4932908;29;20472;-74
2023/10/04 05:43:16;;;;;;;12.02;5.10;;;26.80;52.60;;;;;;4932655;29;20036;-74
2023/10/04 05:45:44;;;;;;;11.35;5.10;;;27.00;53.10;;;;;;4933353;29;20043;-74
2023/10/04 05:48:11;;;;;;;11.95;4.60;;;26.60;52.60;;;;;;4933740;29;20046;-74
2023/10/04 05:50:38;;;;;;;8.65;5.00;;;26.70;52.50;;;;;;4933990;29;20027;-73
2023/10/04 05:53:07;;;;;;;9.75;4.78;;;26.80;52.50;;;;;;4932694;29;20042;-73
2023/10/04 05:55:39;;;;;;;16.25;4.97;;;26.80;52.50;;;;;;4932971;29;20396;-74
2023/10/04 05:58:13;;;;;;;11.27;5.28;;;26.90;52.50;;;;;;4933243;29;20043;-73
2023/10/04 06:00:42;;;;;;;12.68;5.10;;;26.80;52.50;;;;;;4931357;29;20031;-74
2023/10/04 06:03:11;;;;;;;14.75;5.15;;;26.90;52.50;;;;;;4932014;29;20118;-73
2023/10/04 06:05:40;;;;;;;13.45;5.63;;;26.80;52.40;;;;;;4913671;29;20035;-74
2023/10/04 06:08:15;;;;;;;21.77;5.38;;;26.90;52.40;;;;;;4933837;29;20067;-73
2023/10/04 06:10:43;;;;;;;13.35;5.60;;;26.80;52.40;;;;;;4933521;29;20039;-74
2023/10/04 06:13:12;;;;;;;12.30;5.57;;;26.90;52.40;;;;;;4934868;29;20156;-74
2023/10/04 06:15:42;;;;;;;18.50;6.55;;;26.90;52.40;;;;;;4899634;29;20036;-73
2023/10/04 06:18:12;;;;;;;20.23;5.15;;;26.80;52.40;;;;;;4932170;29;20114;-74
2023/10/04 06:20:40;;;;;;;16.10;5.18;;;26.80;52.20;;;;;;4935710;29;20039;-75
2023/10/04 06:23:09;;;;;;;3.83;2.35;;;26.90;52.20;;;;;;4936792;29;20334;-76
2023/10/04 06:25:44;;;;;;;2.85;1.60;;;26.80;52.80;;;;;;4936997;29;20047;-78
2023/10/04 06:28:10;;;;;;;2.72;1.80;;;27.00;54.70;;;;;;4935231;29;20031;-79
2023/10/04 06:30:37;;;;;;;4.82;1.90;;;27.20;54.30;;;;;;4937016;29;20053;-77
2023/10/04 06:33:05;;;;;;;4.60;1.95;;;27.30;54.50;;;;;;4937178;29;20138;-77
2023/10/04 06:35:32;;;;;;;3.67;2.67;;;27.50;55.90;;;;;;4936581;29;20039;-77
2023/10/04 06:38:00;;;;;;;9.50;8.50;;;27.80;54.00;;;;;;4937856;29;20046;-77
2023/10/04 06:40:30;;;;;;;22.33;17.42;;;27.80;53.00;;;;;;4937905;29;20043;-80
2023/10/04 06:42:56;;;;;;;30.48;22.33;;;27.80;53.30;;;;;;4936993;29;20059;-75
2023/10/04 06:45:26;;;;;;;10.25;8.20;;;27.90;54.40;;;;;;4936217;29;20040;-76
2023/10/04 06:47:55;;;;;;;10.35;6.75;;;27.90;51.50;;;;;;4939294;29;20396;-82
2023/10/04 06:50:28;;;;;;;19.73;5.22;;;27.80;50.50;;;;;;4941504;29;20039;-74
2023/10/04 06:52:56;;;;;;;;;;;27.70;50.40;;;;;;4942888;29;20447;-78
2023/10/04 06:55:22;;;;;;;9.48;4.45;;;27.70;50.40;;;;;;4941145;29;20318;-72
2023/10/04 06:57:49;;;;;;;6.03;3.28;;;27.70;51.90;;;;;;4933497;28;20027;-75
2023/10/04 07:00:20;;;;;;;3.25;2.08;;;27.80;51.10;;;;;;4933986;29;20035;-75
2023/10/04 07:02:58;;;;;;;11.95;4.15;;;27.70;50.80;;;;;;4935228;29;20036;-74
2023/10/04 07:05:35;;;;;;;9.32;4.88;;;27.90;50.60;;;;;;4937025;29;20059;-75
2023/10/04 07:08:04;;;;;;;8.88;4.45;;;27.70;50.50;;;;;;4934522;29;20042;-73
2023/10/04 07:10:30;;;;;;;12.43;4.80;;;27.70;50.50;;;;;;4933598;29;20075;-76
2023/10/04 07:12:58;;;;;;;17.73;4.90;;;27.60;50.60;;;;;;4937673;29;20075;-74
2023/10/04 07:15:30;;;;;;;18.60;5.55;;;27.80;50.70;;;;;;4936309;29;20027;-79
2023/10/04 07:17:57;;;;;;;4.15;2.70;;;27.60;51.10;;;;;;4936148;29;20453;-78
2023/10/04 07:20:24;;;;;;;3.17;1.98;;;27.60;51.30;;;;;;4936862;29;20119;-76
2023/10/04 07:22:58;;;;;;;2.17;1.70;;;27.50;51.60;;;;;;4937456;29;20048;-75
2023/10/04 07:25:30;;;;;;;2.70;1.75;;;27.50;51.70;;;;;;4935986;29;20051;-74
2023/10/04 07:27:57;;;;;;;6.65;2.10;;;27.60;52.20;;;;;;4934071;29;20027;-76
2023/10/04 07:30:27;;;;;;;3.45;1.73;;;27.50;52.30;;;;;;4934417;29;20035;-75
2023/10/04 07:32:53;;;;;;;9.80;3.63;;;27.60;52.20;;;;;;4935116;29;20106;-75
2023/10/04 07:35:25;;;;;;;18.00;5.20;;;27.50;52.20;;;;;;4936663;29;20039;-73
2023/10/04 07:37:52;;;;;;;4.53;2.85;;;27.60;53.40;;;;;;4934709;29;20055;-74
2023/10/04 07:40:21;;;;;;;8.23;2.17;;;27.50;54.10;;;;;;4935876;29;20396;-77
2023/10/04 07:42:48;;;;;;;4.30;2.63;;;27.60;53.70;;;;;;4934196;29;20023;-76
2023/10/04 07:45:16;;;;;;;10.30;2.05;;;27.60;53.30;;;;;;4936683;29;20086;-76
2023/10/04 07:47:43;;;;;;;3.50;1.95;;;27.70;53.10;;;;;;4934023;29;20499;-73
2023/10/04 07:50:13;;;;;;;3.78;2.10;;;27.60;53.00;;;;;;4933849;29;20143;-73
2023/10/04 07:52:40;;;;;;;8.90;2.47;;;27.50;53.00;;;;;;4934789;29;20044;-73
2023/10/04 07:55:22;;;;;;;4.25;1.90;;;27.60;53.20;;;;;;4937449;29;20027;-74
2023/10/04 07:58:03;;;;;;;5.03;2.92;;;27.60;53.30;;;;;;4935551;28;20114;-76
2023/10/04 08:00:29;;;;;;;6.55;3.22;;;27.70;53.30;;;;;;4933980;29;20063;-74
2023/10/04 08:02:57;;;;;;;3.25;2.20;;;27.60;53.10;;;;;;4934667;29;20039;-72
2023/10/04 08:05:26;;;;;;;5.05;2.50;;;27.70;53.10;;;;;;4932993;29;21162;-72
2023/10/04 08:07:54;;;;;;;4.43;2.30;;;27.60;53.00;;;;;;4933829;29;20035;-72
2023/10/04 08:10:25;;;;;;;5.85;2.75;;;27.60;52.40;;;;;;4933983;29;20027;-71
2023/10/04 08:12:54;;;;;;;3.15;2.47;;;27.70;51.20;;;;;;4931366;29;20035;-71
2023/10/04 08:15:25;;;;;;;6.22;3.30;;;27.50;50.20;;;;;;4932316;29;20512;-70
2023/10/04 08:17:52;;;;;;;4.18;2.72;;;27.60;49.30;;;;;;4930857;29;20638;-71
2023/10/04 08:20:21;;;;;;;5.43;3.05;;;27.50;48.20;;;;;;4913020;29;20032;-71
2023/10/04 08:22:48;;;;;;;6.25;3.00;;;27.50;47.50;;;;;;4918920;29;20067;-70
2023/10/04 08:25:23;;;;;;;6.47;3.53;;;27.50;46.80;;;;;;4933705;29;20047;-70
2023/10/04 08:27:49;;;;;;;9.77;3.70;;;27.70;44.70;;;;;;4932820;29;20036;-76
2023/10/04 08:30:17;;;;;;;10.93;4.80;;;27.60;43.60;;;;;;4933339;29;20102;-72
2023/10/04 08:32:45;;;;;;;10.40;3.45;;;27.60;42.70;;;;;;4932578;29;20047;-70
2023/10/04 08:35:28;;;;;;;8.40;4.15;;;27.90;43.00;;;;;;4920477;29;20130;-72
2023/10/04 08:37:57;;;;;;;7.53;3.30;;;27.80;43.90;;;;;;4928854;29;20044;-74
2023/10/04 08:40:25;;;;;;;8.98;3.20;;;27.80;43.40;;;;;;4931010;29;20254;-72
2023/10/04 08:42:51;;;;;;;10.40;3.50;;;27.80;43.40;;;;;;4931002;29;20079;-75
2023/10/04 08:45:20;;;;;;;5.90;3.40;;;27.80;43.40;;;;;;4933615;29;20082;-74
2023/10/04 08:47:51;;;;;;;5.85;3.50;;;27.80;43.40;;;;;;4932968;29;20449;-72
2023/10/04 08:50:42;;;;;;;6.45;2.95;;;27.90;43.50;;;;;;4932277;29;20170;-77
2023/10/04 08:53:27;;;;;;;6.78;3.58;;;27.70;43.50;;;;;;4933374;29;20054;-72
2023/10/04 08:56:19;;;;;;;4.90;3.28;;;27.70;43.60;;;;;;4941745;29;20538;-74
2023/10/04 08:58:46;;;;;;;9.07;3.30;;;27.80;44.10;;;;;;4859807;29;20074;-76
2023/10/04 09:01:15;;;;;;;7.28;3.90;;;27.70;44.30;;;;;;4875111;29;20116;-74
2023/10/04 09:03:43;;;;;;;5.18;2.38;;;27.70;44.50;;;;;;4873671;29;20052;-75
2023/10/04 09:06:10;;;;;;;6.75;3.65;;;27.70;44.30;;;;;;4859179;29;20078;-75
2023/10/04 09:08:40;;;;;;;4.85;3.63;;;27.70;44.70;;;;;;4859512;29;20082;-75
2023/10/04 09:11:15;;;;;;;8.32;3.25;;;27.70;44.90;;;;;;4874274;29;20493;-76
2023/10/04 09:13:48;;;;;;;8.38;2.85;;;27.70;45.00;;;;;;4874174;29;20474;-73
2023/10/04 09:16:28;;;;;;;9.18;3.50;;;27.60;45.10;;;;;;4867954;29;20136;-76
2023/10/04 09:19:19;;;;;;;5.57;3.58;;;27.80;45.20;;;;;;4874650;29;20040;-74
2023/10/04 09:21:46;;;;;;;7.40;3.50;;;27.60;45.20;;;;;;4870465;29;20044;-74
2023/10/04 09:24:14;;;;;;;7.60;3.17;;;27.70;45.20;;;;;;4857831;29;20564;-77
2023/10/04 09:26:53;;;;;;;8.95;2.75;;;27.60;45.50;;;;;;4851406;29;20465;-76
2023/10/04 09:29:36;;;;;;;6.32;2.90;;;27.60;45.80;;;;;;4875007;29;20132;-70
2023/10/04 09:32:03;;;;;;;8.07;3.83;;;27.50;46.00;;;;;;4874615;29;20063;-68
2023/10/04 09:34:30;;;;;;;3.97;2.53;;;27.60;46.10;;;;;;4869562;29;20576;-73
2023/10/04 09:36:57;;;;;;;5.47;2.55;;;27.60;46.20;;;;;;4932492;29;20058;-74
2023/10/04 09:39:28;;;;;;;5.18;2.67;;;27.60;46.40;;;;;;4930649;29;20495;-75
2023/10/04 09:41:56;;;;;;;5.25;2.78;;;27.60;46.50;;;;;;4932144;29;20086;-78
2023/10/04 09:44:30;;;;;;;5.10;2.67;;;27.50;46.70;;;;;;4932539;29;20338;-73
2023/10/04 09:47:01;;;;;;;4.97;2.92;;;27.50;47.20;;;;;;4930645;29;20054;-71
2023/10/04 09:49:33;;;;;;;4.93;3.20;;;27.40;48.00;;;;;;4933213;29;20038;-73
2023/10/04 09:52:05;;;;;;;6.63;3.45;;;27.40;48.10;;;;;;4929505;29;20032;-72
2023/10/04 09:54:31;;;;;;;;;;;27.50;48.10;;;;;;4934582;29;20048;-74
2023/10/04 09:56:59;;;;;;;4.65;3.03;;;27.50;48.10;;;;;;4925511;29;20002;-73
2023/10/04 09:59:26;;;;;;;6.32;3.13;;;27.50;49.20;;;;;;4935645;29;20043;-81
2023/10/04 10:01:55;;;;;;;18.50;4.55;;;27.40;51.80;;;;;;4938256;29;20035;-77
2023/10/04 10:04:29;;;;;;;9.93;3.28;;;27.60;54.40;;;;;;4932175;29;20167;-78
2023/10/04 10:07:15;;;;;;;4.03;2.83;;;27.90;59.80;;;;;;4933777;29;20543;-75
2023/10/04 10:09:53;;;;;;;3.58;2.03;;;28.20;59.70;;;;;;4933246;29;20408;-76
2023/10/04 10:12:20;;;;;;;6.55;3.75;;;28.20;60.60;;;;;;4933078;29;20044;-77
2023/10/04 10:14:48;;;;;;;8.82;3.63;;;28.40;58.60;;;;;;4916689;29;20044;-74
2023/10/04 10:17:17;;;;;;;8.65;3.42;;;28.50;55.60;;;;;;4933989;29;20037;-72
2023/10/04 10:19:46;;;;;;;6.60;3.58;;;28.50;52.30;;;;;;4935144;29;20036;-72
2023/10/04 10:22:16;;;;;;;5.57;3.25;;;28.40;50.60;;;;;;4943557;29;20484;-74
2023/10/04 10:24:51;;;;;;;8.32;3.28;;;28.40;49.50;;;;;;4939566;29;20051;-74
2023/10/04 10:27:20;;;;;;;5.43;3.10;;;28.30;48.90;;;;;;4916746;29;20146;-77
2023/10/04 10:29:47;;;;;;;8.07;3.15;;;28.20;48.50;;;;;;4927304;29;20046;-79
2023/10/04 10:32:15;;;;;;;5.60;3.17;;;28.40;48.10;;;;;;4931980;29;20138;-76
2023/10/04 10:34:44;;;;;;;4.70;3.67;;;28.20;46.70;;;;;;4933986;29;20054;-76
2023/10/04 10:37:23;;;;;;;4.85;2.58;;;28.20;47.20;;;;;;4934552;29;20051;-76
2023/10/04 10:39:55;;;;;;;4.28;2.70;;;28.20;46.70;;;;;;4931701;29;20031;-76
2023/10/04 10:42:22;;;;;;;5.28;2.83;;;28.10;46.70;;;;;;4935994;29;20047;-77
2023/10/04 10:44:50;;;;;;;13.13;3.33;;;28.20;48.90;;;;;;4936081;29;20131;-75
2023/10/04 10:47:25;;;;;;;5.18;3.05;;;28.20;49.80;;;;;;4935568;29;20476;-77
2023/10/04 10:50:12;;;;;;;6.95;3.80;;;28.20;52.30;;;;;;4934242;29;20036;-77
2023/10/04 10:52:41;;;;;;;7.32;3.53;;;28.10;50.50;;;;;;4934825;29;20055;-78
2023/10/04 10:55:14;;;;;;;3.70;2.20;;;28.20;51.10;;;;;;4937564;29;20031;-76
2023/10/04 10:57:44;;;;;;;6.70;3.72;;;28.10;51.60;;;;;;4937062;29;20051;-73
2023/10/04 11:00:13;;;;;;;5.32;3.50;;;28.10;50.50;;;;;;4931677;29;20039;-75
2023/10/04 11:02:40;;;;;;;5.55;3.10;;;28.10;48.10;;;;;;4936035;29;20094;-77
2023/10/04 11:05:07;;;;;;;5.28;2.63;;;28.00;48.30;;;;;;4944768;29;20031;-75
2023/10/04 11:07:33;;;;;;;4.10;2.10;;;28.00;48.00;;;;;;4931841;29;20099;-74
2023/10/04 11:09:59;;;;;;;5.72;2.40;;;27.90;48.10;;;;;;4934645;29;20051;-75
2023/10/04 11:12:25;;;;;;;4.80;3.05;;;28.10;48.70;;;;;;4935607;29;20551;-76
2023/10/04 11:14:52;;;;;;;11.65;3.08;;;28.20;48.30;;;;;;4932945;29;20039;-77
2023/10/04 11:17:22;;;;;;;5.60;2.40;;;28.40;48.90;;;;;;4933377;29;20031;-77
2023/10/04 11:19:51;;;;;;;6.38;3.00;;;28.40;47.90;;;;;;4934710;29;20036;-78
2023/10/04 11:22:19;;;;;;;5.72;2.95;;;28.50;48.40;;;;;;4936081;29;20027;-75
2023/10/04 11:24:46;;;;;;;6.18;2.83;;;28.50;48.10;;;;;;4934105;29;20027;-71
2023/10/04 11:27:21;;;;;;;4.85;3.03;;;28.60;48.10;;;;;;4934821;29;20404;-77
2023/10/04 11:29:52;;;;;;;4.57;3.08;;;28.60;49.40;;;;;;4934805;29;20039;-70
2023/10/04 11:32:18;;;;;;;4.75;3.45;;;28.80;47.50;;;;;;4934657;29;20388;-78
2023/10/04 11:34:45;;;;;;;3.58;2.63;;;28.60;50.00;;;;;;4921876;29;20048;-77
2023/10/04 11:37:13;;;;;;;4.55;2.75;;;28.60;47.60;;;;;;4928059;29;20028;-77
2023/10/04 11:39:41;;;;;;;6.47;2.88;;;28.50;46.90;;;;;;4932599;29;20039;-79
2023/10/04 11:42:20;;;;;;;6.20;2.95;;;28.60;46.50;;;;;;4916878;29;20400;-80
2023/10/04 11:44:46;;;;;;;3.78;2.65;;;28.40;45.70;;;;;;4936558;29;20091;-74
2023/10/04 11:47:14;;;;;;;5.00;2.70;;;28.60;45.50;;;;;;4934898;29;20063;-72
2023/10/04 11:49:58;;;;;;;7.75;2.53;;;28.50;45.80;;;;;;4935204;29;20042;-76
2023/10/04 11:52:32;;;;;;;5.28;2.80;;;28.50;45.30;;;;;;4936596;29;20063;-77
2023/10/04 11:54:58;;;;;;;9.77;2.70;;;28.40;44.40;;;;;;4935628;29;20028;-76
2023/10/04 11:57:26;;;;;;;9.05;3.28;;;28.40;44.90;;;;;;4934711;29;20163;-75
2023/10/04 11:59:52;;;;;;;8.18;3.20;;;28.30;46.30;;;;;;4934996;29;20110;-75
2023/10/04 12:02:22;;;;;;;4.97;2.80;;;28.20;46.50;;;;;;4934208;29;20047;-75
2023/10/04 12:04:48;;;;;;;4.53;2.45;;;28.20;46.20;;;;;;4934159;29;20035;-76
2023/10/04 12:07:14;;;;;;;6.30;3.08;;;28.20;46.40;;;;;;4934583;29;20400;-76
2023/10/04 12:09:40;;;;;;;3.90;2.58;;;28.30;46.50;;;;;;4937548;29;20110;-74
2023/10/04 12:12:06;;;;;;;6.95;2.58;;;28.00;47.00;;;;;;4934382;29;20673;-77
2023/10/04 12:14:33;;;;;;;6.75;2.72;;;28.00;46.70;;;;;;4937473;29;20539;-74
2023/10/04 12:17:04;;;;;;;5.03;2.63;;;28.20;47.60;;;;;;4933841;29;20456;-76
2023/10/04 12:19:35;;;;;;;4.15;2.40;;;28.00;47.70;;;;;;4934951;29;20051;-77
2023/10/04 12:22:09;;;;;;;4.88;2.70;;;27.90;47.30;;;;;;4933665;29;20044;-74
2023/10/04 12:24:39;;;;;;;4.80;2.15;;;28.00;47.70;;;;;;4931961;29;20738;-74
2023/10/04 12:27:08;;;;;;;6.70;2.22;;;28.00;47.90;;;;;;4931158;29;20039;-76
2023/10/04 12:29:38;;;;;;;4.78;2.38;;;27.90;47.40;;;;;;4935700;29;20063;-74
2023/10/04 12:32:07;;;;;;;5.57;2.33;;;28.00;48.00;;;;;;4930398;29;20046;-78
2023/10/04 12:34:34;;;;;;;3.20;2.13;;;27.90;47.50;;;;;;4933645;29;20090;-73
2023/10/04 12:37:00;;;;;;;4.18;2.15;;;28.00;48.10;;;;;;4935564;29;20039;-78
2023/10/04 12:39:27;;;;;;;5.40;2.45;;;27.90;47.60;;;;;;4933206;29;20465;-73
2023/10/04 12:41:55;;;;;;;4.07;2.45;;;27.90;47.60;;;;;;4937296;29;20460;-75
2023/10/04 12:44:23;;;;;;;5.32;2.63;;;27.80;47.80;;;;;;4933432;29;20134;-76
2023/10/04 12:46:48;;;;;;;8.45;2.95;;;27.90;47.70;;;;;;4933779;29;20039;-74
2023/10/04 12:49:15;;;;;;;5.40;2.60;;;27.90;47.70;;;;;;4932686;29;20464;-72
2023/10/04 12:51:42;;;;;;;7.05;2.50;;;27.80;47.70;;;;;;4933051;29;20099;-75
2023/10/04 12:54:09;;;;;;;4.88;2.40;;;27.90;47.80;;;;;;4931946;29;20028;-74
2023/10/04 12:56:36;;;;;;;7.28;2.92;;;27.80;47.70;;;;;;4932662;29;20028;-74
2023/10/04 12:59:06;;;;;;;3.55;2.47;;;27.80;47.40;;;;;;4931829;29;20039;-74
2023/10/04 13:01:33;;;;;;;3.72;2.60;;;27.90;47.20;;;;;;4933374;29;20027;-73